Data for 09/19/2018

Time Sea-Level Adjusted Pressure Absolute Pressure Temperature Relative Humidity Dew Point   
(mb) (inHg) (mb) (inHg) (C) (F) (%) (C) (F)
00:05 1018 30.06 847 25.01 11.4 52.4 64 4.9 40.8
00:10 1018 30.06 847 25.01 11.3 52.3 63 4.6 40.2
00:15 1018 30.06 847 25.01 11.3 52.4 63 4.6 40.4
00:20 1018 30.06 847 25.01 11.4 52.4 63 4.6 40.3
00:25 1018 30.06 847 25.01 11.2 52.1 64 4.7 40.5
00:30 1018 30.06 847 25.01 11.1 51.9 65 4.8 40.6
00:35 1018 30.06 847 25.01 10.8 51.4 66 4.7 40.5
00:40 1018 30.06 847 25.01 10.9 51.5 65 4.7 40.4
00:45 1018 30.06 847 25.01 11.1 52 67 5.2 41.3
00:50 1018 30.06 847 25.01 11.2 52.1 65 4.8 40.6
00:55 1018 30.06 847 25.01 11.2 52.2 64 4.7 40.5
01:00 1018 30.06 847 25.01 11.1 52.1 65 4.9 40.8
01:05 1018 30.06 847 25.01 11.2 52.1 67 5.3 41.6
01:10 1018 30.06 847 25.01 11.3 52.4 66 5.2 41.3
01:15 1018 30.06 847 25.01 11 51.8 67 5.2 41.3
01:20 1018 30.06 847 25.01 11.1 51.9 66 5 41
01:25 1018 30.06 847 25.01 10.9 51.7 67 5 41.1
01:30 1018 30.06 847 25.01 10.9 51.7 67 5.1 41.1
01:35 1018 30.06 847 25.01 10.8 51.4 67 4.9 40.8
01:40 1018 30.06 847 25.01 10.6 51.1 68 5 41
01:45 1018 30.06 847 25.01 10.4 50.8 68 4.9 40.8
01:50 1018 30.06 847 25.01 10.4 50.7 68 4.9 40.7
01:55 1018 30.06 847 25.01 10.5 50.9 69 5.1 41.2
02:00 1018 30.06 847 25.01 10.7 51.2 69 5.2 41.3
02:05 1018 30.06 847 25.01 10.7 51.2 69 5.2 41.4
02:10 1018 30.06 848 25.04 10.6 51.2 69 5.2 41.3
02:15 1018 30.06 848 25.04 10.5 50.8 69 5.1 41.3
02:20 1018 30.06 848 25.04 10.5 50.8 68 4.9 40.9
02:25 1018 30.06 848 25.04 10.4 50.8 69 5 41
02:30 1018 30.06 848 25.04 10.3 50.5 69 4.9 40.9
02:35 1018 30.06 848 25.04 10.3 50.5 70 5.1 41.2
02:40 1018 30.06 848 25.04 10.4 50.8 69 5 41
02:45 1018 30.06 848 25.04 10.4 50.6 70 5.1 41.2
02:50 1018 30.06 848 25.04 10.4 50.7 71 5.3 41.5
02:55 1018 30.06 848 25.04 10.5 50.9 69 5.1 41.1
03:00 1018 30.06 848 25.04 10.3 50.6 70 5.2 41.3
03:05 1018 30.06 848 25.04 10.3 50.5 72 5.6 42
03:10 1018 30.06 848 25.04 10.5 50.9 72 5.8 42.4
03:15 1018 30.06 848 25.04 10.6 51.2 71 5.7 42.2
03:20 1018 30.06 848 25.04 10.6 51 72 5.8 42.4
03:25 1018 30.06 848 25.04 10.5 51 70 5.3 41.5
03:30 1018 30.06 848 25.04 10.3 50.6 70 5.2 41.3
03:35 1018 30.06 848 25.04 10.1 50.2 73 5.6 42.1
03:40 1018 30.06 848 25.04 10.4 50.7 73 5.8 42.4
03:45 1018 30.06 848 25.04 10.5 50.9 73 5.9 42.7
03:50 1018 30.06 848 25.04 10.5 50.9 73 5.8 42.5
03:55 1018 30.06 848 25.04 10.6 51 73 5.9 42.6
04:00 1018 30.06 848 25.04 10.5 51 73 5.8 42.5
04:05 1018 30.06 848 25.04 10.5 50.9 73 5.9 42.6
04:10 1018 30.06 848 25.04 10.4 50.8 73 5.9 42.6
04:15 1018 30.06 848 25.04 10.4 50.6 74 5.9 42.6
04:20 1018 30.06 848 25.04 10.3 50.5 74 5.8 42.4
04:25 1018 30.06 848 25.04 10.2 50.3 74 5.8 42.5
04:30 1018 30.06 848 25.04 10.1 50.2 75 5.8 42.5
04:35 1018 30.06 848 25.04 10.1 50.1 75 5.8 42.5
04:40 1018 30.06 848 25.04 10.1 50.1 74 5.7 42.3
04:45 1018 30.06 848 25.04 10 50.1 74 5.7 42.3
04:50 1018 30.06 848 25.04 10 49.9 75 5.7 42.2
04:55 1019 30.09 848 25.04 9.9 49.8 74 5.6 42.1
05:00 1019 30.09 848 25.04 9.9 49.8 75 5.6 42.1
05:05 1019 30.09 848 25.04 9.9 49.7 75 5.6 42.2
05:10 1019 30.09 848 25.04 9.8 49.7 75 5.6 42.1
05:15 1019 30.09 848 25.04 9.8 49.7 75 5.7 42.3
05:20 1019 30.09 848 25.04 9.8 49.6 76 5.7 42.3
05:25 1019 30.09 848 25.04 9.7 49.5 76 5.7 42.3
05:30 1019 30.09 848 25.04 9.7 49.5 76 5.7 42.3
05:35 1019 30.09 848 25.04 9.7 49.4 76 5.7 42.2
05:40 1019 30.09 848 25.04 9.7 49.4 76 5.7 42.2
05:45 1019 30.09 848 25.04 9.7 49.5 75 5.6 42
05:50 1019 30.09 848 25.04 9.7 49.5 75 5.6 42.1
05:55 1019 30.09 848 25.04 9.7 49.5 75 5.5 41.8
06:00 1019 30.09 848 25.04 9.7 49.5 75 5.5 41.9
06:05 1019 30.09 848 25.04 9.7 49.5 75 5.4 41.8
06:10 1019 30.09 848 25.04 9.7 49.5 75 5.5 41.8
06:15 1019 30.09 848 25.04 9.7 49.5 75 5.5 41.9
06:20 1019 30.09 848 25.04 9.7 49.4 75 5.4 41.8
06:25 1019 30.09 848 25.04 9.7 49.4 75 5.5 41.8
06:30 1019 30.09 848 25.04 9.7 49.4 75 5.5 41.9
06:35 1019 30.09 848 25.04 9.7 49.5 75 5.5 41.8
06:40 1019 30.09 848 25.04 9.7 49.4 75 5.4 41.8
06:45 1019 30.09 848 25.04 9.7 49.5 75 5.5 41.8
06:50 1019 30.09 848 25.04 9.7 49.5 75 5.4 41.8
06:55 1019 30.09 848 25.04 9.8 49.7 74 5.4 41.8
07:00 1019 30.09 848 25.04 9.9 49.8 74 5.4 41.8
07:05 1019 30.09 848 25.04 9.9 49.8 73 5.4 41.6
07:10 1019 30.09 848 25.04 9.9 49.8 74 5.4 41.8
07:15 1019 30.09 848 25.04 9.9 49.8 73 5.3 41.6
07:20 1019 30.09 848 25.04 9.9 49.7 73 5.3 41.6
07:25 1019 30.09 848 25.04 9.9 49.7 73 5.3 41.5
07:30 1019 30.09 848 25.04 9.9 49.7 73 5.2 41.4
07:35 1019 30.09 848 25.04 9.9 49.7 73 5.2 41.4
07:40 1019 30.09 848 25.04 9.8 49.7 73 5.1 41.2
07:45 1019 30.09 848 25.04 9.9 49.7 72 5.1 41.3
07:50 1019 30.09 848 25.04 9.8 49.7 73 5.2 41.3
07:55 1019 30.09 848 25.04 9.7 49.5 72 5 41.1
08:00 1019 30.09 848 25.04 9.7 49.5 72 4.9 40.9
08:05 1019 30.09 848 25.04 9.8 49.6 71 4.9 40.7
08:10 1019 30.09 848 25.04 9.8 49.6 71 4.9 40.8
08:15 1019 30.09 848 25.04 9.8 49.7 70 4.7 40.5
08:20 1019 30.09 848 25.04 9.8 49.6 70 4.6 40.3
08:25 1019 30.09 848 25.04 9.9 49.8 69 4.5 40.2
08:30 1019 30.09 848 25.04 9.9 49.8 69 4.6 40.2
08:35 1019 30.09 848 25.04 10 49.9 69 4.5 40.1
08:40 1019 30.09 848 25.04 10.1 50.1 68 4.5 40.2
08:45 1019 30.09 848 25.04 10.2 50.3 68 4.6 40.3
08:50 1019 30.09 848 25.04 10.4 50.6 67 4.6 40.3
08:55 1019 30.09 848 25.04 10.4 50.7 67 4.5 40.1
09:00 1019 30.09 848 25.04 10.4 50.7 67 4.6 40.3
09:05 1019 30.09 848 25.04 10.5 50.8 67 4.7 40.4
09:10 1019 30.09 849 25.07 10.6 51 67 4.7 40.5
09:15 1019 30.09 849 25.07 10.4 50.7 68 4.7 40.5
09:20 1019 30.09 849 25.07 10.3 50.6 68 4.7 40.5
09:25 1019 30.09 849 25.07 10.2 50.4 69 4.8 40.6
09:30 1019 30.09 849 25.07 10.3 50.5 68 4.8 40.6
09:35 1019 30.09 849 25.07 10.2 50.3 69 4.7 40.5
09:40 1019 30.09 849 25.07 10 49.9 70 4.7 40.5
09:45 1019 30.09 849 25.07 10 49.9 70 4.7 40.5
09:50 1019 30.09 848 25.04 10 49.9 70 4.8 40.7
09:55 1019 30.09 848 25.04 10 49.9 70 4.8 40.7
10:00 1019 30.09 848 25.04 10 50 70 4.8 40.7
10:05 1019 30.09 848 25.04 10.2 50.4 70 5 41
10:10 1019 30.09 848 25.04 10.3 50.5 70 5.1 41.2
10:15 1019 30.09 848 25.04 10.6 51 67 4.7 40.4
10:20 1019 30.09 848 25.04 11 51.7 66 5 40.9
10:25 1019 30.09 848 25.04 11.2 52.2 67 5.3 41.5
10:30 1019 30.09 848 25.04 11 51.7 68 5.2 41.4
10:35 1019 30.09 848 25.04 10.9 51.7 67 5.1 41.2
10:40 1019 30.09 848 25.04 10.7 51.3 69 5.2 41.4
10:45 1019 30.09 848 25.04 10.9 51.6 68 5.2 41.4
10:50 1019 30.09 848 25.04 10.9 51.6 67 5.1 41.1
10:55 1019 30.09 848 25.04 11.2 52.2 66 5.1 41.2
11:00 1019 30.09 848 25.04 11.3 52.3 66 5.2 41.4
11:05 1019 30.09 848 25.04 11.1 52 66 5.1 41.1
11:10 1019 30.09 848 25.04 11.2 52.1 65 5 40.9
11:15 1019 30.09 848 25.04 11.4 52.5 64 5 40.9
11:20 1019 30.09 848 25.04 11.5 52.6 64 5 41
11:25 1019 30.09 848 25.04 11.5 52.7 64 5 41
11:30 1019 30.09 848 25.04 11.6 52.9 62 4.6 40.3
11:35 1019 30.09 848 25.04 11.6 52.9 63 5 41
11:40 1019 30.09 848 25.04 11.5 52.7 62 4.6 40.3
11:45 1018 30.06 848 25.04 11.3 52.4 63 4.5 40.2
11:50 1018 30.06 848 25.04 11.4 52.6 63 4.6 40.4
11:55 1018 30.06 848 25.04 11.5 52.7 63 4.7 40.5
12:00 1018 30.06 848 25.04 11.5 52.7 62 4.4 40
12:05 1018 30.06 848 25.04 11.7 53 63 4.9 40.9
12:10 1018 30.06 848 25.04 11.2 52.1 63 4.4 40
12:15 1018 30.06 847 25.01 11.3 52.3 63 4.6 40.3
12:20 1018 30.06 847 25.01 11.4 52.5 63 4.6 40.4
12:25 1018 30.06 847 25.01 11.4 52.6 63 4.6 40.3
12:30 1018 30.06 847 25.01 11.5 52.8 62 4.6 40.2
12:35 1018 30.06 847 25.01 11.7 53 62 4.6 40.3
12:40 1018 30.06 847 25.01 11.8 53.2 62 4.7 40.5
12:45 1018 30.06 847 25.01 11.7 53 62 4.6 40.2
12:50 1018 30.06 847 25.01 11.8 53.3 62 4.7 40.5
12:55 1018 30.06 847 25.01 11.8 53.3 62 4.8 40.6
13:00 1018 30.06 847 25.01 11.4 52.6 63 4.8 40.6
13:05 1018 30.06 847 25.01 11.2 52.2 65 4.9 40.8
13:10 1018 30.06 847 25.01 11.1 52 65 4.8 40.6
13:15 1018 30.06 847 25.01 11 51.9 65 4.7 40.5
13:20 1018 30.06 847 25.01 11.3 52.3 63 4.6 40.2
13:25 1018 30.06 847 25.01 11.3 52.4 63 4.6 40.2
13:30 1018 30.06 847 25.01 11.2 52.1 64 4.6 40.2
13:35 1018 30.06 847 25.01 11.3 52.4 62 4.4 40
13:40 1018 30.06 847 25.01 11.2 52.1 64 4.7 40.4
13:45 1018 30.06 847 25.01 11.1 52 64 4.5 40.1
13:50 1018 30.06 847 25.01 10.9 51.6 63 4.3 39.7
13:55 1018 30.06 847 25.01 10.9 51.7 63 4.3 39.8
14:00 1018 30.06 847 25.01 10.9 51.7 64 4.4 39.9
14:05 1017 30.03 847 25.01 10.9 51.6 63 4.2 39.6
14:10 1017 30.03 847 25.01 10.9 51.6 64 4.3 39.8
14:15 1017 30.03 847 25.01 10.9 51.6 64 4.5 40
14:20 1017 30.03 847 25.01 10.9 51.7 64 4.4 40
14:25 1017 30.03 847 25.01 10.8 51.4 64 4.4 39.9
14:30 1017 30.03 847 25.01 10.8 51.4 65 4.4 39.9
14:35 1017 30.03 847 25.01 10.9 51.5 64 4.4 39.8
14:40 1017 30.03 847 25.01 10.7 51.2 65 4.4 39.9
14:45 1017 30.03 847 25.01 10.6 51.1 65 4.4 40
14:50 1017 30.03 847 25.01 10.8 51.5 64 4.2 39.6
14:55 1017 30.03 847 25.01 10.9 51.5 65 4.6 40.2
15:00 1017 30.03 847 25.01 10.3 50.6 66 4.3 39.8
15:05 1017 30.03 847 25.01 10.4 50.6 65 4.2 39.6
15:10 1017 30.03 847 25.01 10.3 50.6 66 4.2 39.6
15:15 1017 30.03 847 25.01 10.3 50.5 65 4.1 39.5
15:20 1017 30.03 847 25.01 10.3 50.6 66 4.2 39.6
15:25 1017 30.03 847 25.01 10.3 50.5 66 4.2 39.6
15:30 1017 30.03 847 25.01 10.2 50.4 66 4.1 39.4
15:35 1017 30.03 847 25.01 10.1 50.2 66 4.2 39.6
15:40 1017 30.03 847 25.01 10.1 50.1 66 4.1 39.3
15:45 1017 30.03 847 25.01 9.9 49.9 67 4.1 39.3
15:50 1017 30.03 846 24.98 9.9 49.8 67 4.1 39.3
15:55 1017 30.03 846 24.98 9.8 49.7 67 4 39.2
16:00 1017 30.03 847 25.01 9.8 49.6 68 4.1 39.4
16:05 1017 30.03 847 25.01 9.8 49.6 67 4 39.3
16:10 1017 30.03 846 24.98 9.7 49.4 68 4.1 39.4
16:15 1017 30.03 846 24.98 9.7 49.5 68 4.1 39.4
16:20 1017 30.03 846 24.98 9.5 49.2 69 4.2 39.5
16:25 1017 30.03 847 25.01 9.4 48.9 69 4.1 39.3
16:30 1017 30.03 847 25.01 9.3 48.7 70 4 39.3
16:35 1017 30.03 847 25.01 9.1 48.4 71 4.1 39.4
16:40 1017 30.03 847 25.01 9 48.1 71 4 39.2
16:45 1017 30.03 847 25.01 8.9 48 71 3.9 39.1
16:50 1017 30.03 847 25.01 8.8 47.9 71 3.9 39
16:55 1017 30.03 847 25.01 8.8 47.8 71 3.9 39
17:00 1018 30.06 847 25.01 8.7 47.7 72 3.9 39
17:05 1018 30.06 847 25.01 8.7 47.6 72 3.9 39
17:10 1017 30.03 847 25.01 8.7 47.6 72 3.9 38.9
17:15 1017 30.03 847 25.01 8.6 47.5 72 3.8 38.8
17:20 1017 30.03 847 25.01 8.6 47.4 71 3.7 38.6
17:25 1017 30.03 847 25.01 8.6 47.5 71 3.7 38.7
17:30 1017 30.03 847 25.01 8.6 47.5 72 3.8 38.8
17:35 1017 30.03 847 25.01 8.4 47.2 73 3.8 38.8
17:40 1017 30.03 847 25.01 8.4 47.1 73 3.8 38.9
17:45 1017 30.03 847 25.01 8.3 46.9 74 3.9 39
17:50 1017 30.03 847 25.01 8.3 46.9 74 3.9 39
17:55 1017 30.03 847 25.01 8.2 46.7 74 3.9 39
18:00 1017 30.03 847 25.01 8.1 46.5 75 3.9 39
18:05 1018 30.06 847 25.01 8 46.3 76 3.9 39.1
18:10 1017 30.03 847 25.01 7.9 46.3 76 4 39.2
18:15 1018 30.06 847 25.01 7.8 46.1 76 4 39.1
18:20 1018 30.06 847 25.01 7.8 46 77 4 39.2
18:25 1018 30.06 847 25.01 7.7 45.9 76 3.8 38.9
18:30 1018 30.06 847 25.01 7.8 46 76 3.9 38.9
18:35 1018 30.06 847 25.01 7.8 46 76 3.8 38.9
18:40 1018 30.06 847 25.01 7.7 45.9 76 3.9 39
18:45 1018 30.06 847 25.01 7.7 45.9 76 3.8 38.9
18:50 1018 30.06 847 25.01 7.7 45.9 76 3.9 39
18:55 1018 30.06 847 25.01 7.7 45.8 77 3.9 39
19:00 1018 30.06 847 25.01 7.6 45.7 77 3.9 39
19:05 1018 30.06 847 25.01 7.6 45.6 77 3.9 39
19:10 1018 30.06 847 25.01 7.5 45.6 77 3.9 39
19:15 1018 30.06 847 25.01 7.5 45.6 77 3.9 38.9
19:20 1018 30.06 847 25.01 7.5 45.5 77 3.8 38.9
19:25 1018 30.06 847 25.01 7.5 45.6 77 3.9 38.9
19:30 1018 30.06 847 25.01 7.5 45.5 77 3.8 38.8
19:35 1018 30.06 847 25.01 7.6 45.6 77 3.8 38.8
19:40 1018 30.06 847 25.01 7.6 45.6 77 3.8 38.8
19:45 1018 30.06 847 25.01 7.6 45.6 77 3.8 38.8
19:50 1018 30.06 847 25.01 7.5 45.5 77 3.8 38.8
19:55 1018 30.06 847 25.01 7.4 45.4 78 3.8 38.8
20:00 1018 30.06 847 25.01 7.4 45.3 77 3.7 38.7
20:05 1018 30.06 847 25.01 7.4 45.4 78 3.8 38.8
20:10 1018 30.06 847 25.01 7.4 45.3 78 3.7 38.7
20:15 1018 30.06 847 25.01 7.4 45.2 78 3.8 38.8
20:20 1018 30.06 847 25.01 7.4 45.3 78 3.7 38.7
20:25 1018 30.06 847 25.01 7.4 45.3 77 3.7 38.7
20:30 1018 30.06 847 25.01 7.4 45.3 78 3.7 38.7
20:35 1018 30.06 847 25.01 7.4 45.2 78 3.7 38.7
20:40 1018 30.06 847 25.01 7.4 45.2 77 3.7 38.6
20:45 1018 30.06 847 25.01 7.3 45.2 78 3.7 38.7
20:50 1018 30.06 847 25.01 7.3 45.1 78 3.7 38.6
20:55 1018 30.06 847 25.01 7.2 44.9 79 3.7 38.7
21:00 1018 30.06 847 25.01 7.1 44.8 79 3.7 38.7
21:05 1018 30.06 847 25.01 7 44.5 80 3.7 38.7
21:10 1018 30.06 847 25.01 6.8 44.3 80 3.7 38.6
21:15 1018 30.06 847 25.01 6.8 44.2 80 3.7 38.6
21:20 1018 30.06 847 25.01 6.7 44.1 81 3.7 38.6
21:25 1018 30.06 847 25.01 6.7 44 81 3.7 38.7
21:30 1018 30.06 847 25.01 6.6 43.9 81 3.6 38.6
21:35 1018 30.06 847 25.01 6.6 43.8 82 3.7 38.6
21:40 1018 30.06 847 25.01 6.5 43.8 81 3.6 38.5
21:45 1018 30.06 847 25.01 6.6 43.8 80 3.5 38.2
21:50 1018 30.06 847 25.01 6.6 43.9 80 3.4 38.2
21:55 1017 30.03 847 25.01 6.6 43.8 80 3.4 38.1
22:00 1018 30.06 847 25.01 6.5 43.7 80 3.3 38
22:05 1018 30.06 847 25.01 6.5 43.7 80 3.2 37.8
22:10 1017 30.03 847 25.01 6.5 43.7 80 3.3 37.9
22:15 1017 30.03 847 25.01 6.4 43.6 80 3.3 37.9
22:20 1017 30.03 846 24.98 6.4 43.6 80 3.3 38
22:25 1017 30.03 847 25.01 6.4 43.5 80 3.3 37.9
22:30 1017 30.03 847 25.01 6.4 43.5 81 3.3 38
22:35 1017 30.03 847 25.01 6.4 43.6 80 3.3 37.9
22:40 1018 30.06 847 25.01 6.5 43.7 80 3.2 37.8
22:45 1017 30.03 847 25.01 6.6 43.8 79 3.3 37.9
22:50 1017 30.03 847 25.01 6.6 43.9 79 3.2 37.7
22:55 1017 30.03 847 25.01 6.7 44 79 3.2 37.8
23:00 1017 30.03 847 25.01 6.6 44 79 3.2 37.8
23:05 1017 30.03 847 25.01 6.6 43.9 79 3.2 37.8
23:10 1017 30.03 847 25.01 6.6 44 79 3.3 37.9
23:15 1017 30.03 847 25.01 6.6 44 79 3.3 37.9
23:20 1017 30.03 847 25.01 6.7 44 78 3.2 37.8
23:25 1017 30.03 847 25.01 6.7 44.1 78 3.2 37.8
23:30 1017 30.03 847 25.01 6.8 44.2 78 3.2 37.8
23:35 1017 30.03 847 25.01 6.9 44.4 77 3.2 37.7
23:40 1018 30.06 847 25.01 6.9 44.4 77 3.2 37.8
23:45 1018 30.06 847 25.01 6.9 44.4 77 3.2 37.7
23:50 1018 30.06 847 25.01 6.9 44.4 77 3.1 37.6
23:55 1018 30.06 847 25.01 7 44.5 77 3.2 37.7
24:00 1018 30.06 847 25.01 7 44.6 76 3.2 37.7